Time,TemperatureF,DewpointF,PressureIn,WindDirection,WindDirectionDegrees,WindSpeedMPH,WindSpeedGustMPH,Humidity,HourlyPrecipIn,Conditions,Clouds,dailyrainin,SoftwareType,DateUTC
2013-08-27 00:00:00,77.0,71.4,29.97,SW,224,0.0,0.0,83,0.00,,SCT033,0.00,VWS V15.00,2013-08-27 04:00:00,
2013-08-27 00:01:00,77.0,71.4,29.98,SW,224,0.0,0.0,83,0.00,,CLR,0.00,VWS V14.01,2013-08-27 04:01:00,
2013-08-27 00:02:00,77.0,71.4,29.98,SW,235,0.0,3.0,83,0.00,,CLR,0.00,VWS V14.01,2013-08-27 04:02:00,
2013-08-27 00:03:00,77.0,71.4,29.97,SW,236,0.0,0.0,83,0.00,,CLR,0.00,VWS V14.01,2013-08-27 04:03:00,
2013-08-27 00:06:00,77.1,71.5,29.97,WSW,239,3.0,4.0,83,0.00,,CLR,0.00,VWS V14.01,2013-08-27 04:06:00,
2013-08-27 00:11:00,77.1,71.5,29.97,SW,230,0.0,3.0,83,0.00,,CLR,0.00,VWS V14.01,2013-08-27 04:11:00,
2013-08-27 00:15:00,77.2,71.6,29.97,SW,228,0.0,1.0,83,0.00,,SCT033,0.00,VWS V15.00,2013-08-27 04:15:00,
2013-08-27 00:16:00,77.2,71.6,29.97,SW,229,4.0,4.0,83,0.00,,CLR,0.00,VWS V14.01,2013-08-27 04:16:00,
2013-08-27 00:21:00,77.2,71.6,29.97,SW,227,5.0,8.0,83,0.00,,CLR,0.00,VWS V14.01,2013-08-27 04:21:00,
2013-08-27 00:26:00,77.3,72.1,29.97,SW,224,0.0,2.0,84,0.00,,CLR,0.00,VWS V14.01,2013-08-27 04:26:00,
2013-08-27 00:30:00,77.4,71.8,29.97,SW,226,1.0,5.0,83,0.00,,SCT033,0.00,VWS V15.00,2013-08-27 04:30:00,
2013-08-27 00:31:00,77.4,71.8,29.97,SW,233,1.0,4.0,83,0.00,,CLR,0.00,VWS V14.01,2013-08-27 04:31:00,
2013-08-27 00:36:00,77.6,72.0,29.97,SSW,212,0.0,5.0,83,0.00,,CLR,0.00,VWS V14.01,2013-08-27 04:36:00,
2013-08-27 00:41:00,77.8,72.2,29.97,WSW,240,3.0,6.0,83,0.00,,CLR,0.00,VWS V14.01,2013-08-27 04:41:00,
2013-08-27 00:45:00,78.0,72.4,29.97,West,260,4.0,4.0,83,0.00,,SCT033,0.00,VWS V15.00,2013-08-27 04:45:00,
2013-08-27 00:46:00,78.0,72.4,29.97,WSW,241,6.0,11.0,83,0.00,,CLR,0.00,VWS V14.01,2013-08-27 04:46:00,
2013-08-27 00:51:00,78.3,72.4,29.97,WSW,239,2.0,5.0,82,0.00,,CLR,0.00,VWS V14.01,2013-08-27 04:51:00,
2013-08-27 00:56:00,78.5,72.6,29.97,SW,219,7.0,8.0,82,0.00,,CLR,0.00,VWS V14.01,2013-08-27 04:56:00,
2013-08-27 01:00:00,78.7,72.8,29.97,WSW,246,4.0,6.0,82,0.00,,SCT033,0.00,VWS V15.00,2013-08-27 05:00:00,
2013-08-27 01:01:00,78.7,72.8,29.97,SW,236,4.0,9.0,82,0.00,,CLR,0.00,VWS V14.01,2013-08-27 05:01:00,
2013-08-27 01:06:00,78.9,72.6,29.96,SW,224,3.0,7.0,81,0.00,,CLR,0.00,VWS V14.01,2013-08-27 05:06:00,
2013-08-27 01:11:00,79.0,72.7,29.97,SW,233,3.0,5.0,81,0.00,,CLR,0.00,VWS V14.01,2013-08-27 05:11:00,
2013-08-27 01:15:00,79.1,72.8,29.96,SW,228,0.0,8.0,81,0.00,,SCT033,0.00,VWS V15.00,2013-08-27 05:15:00,
2013-08-27 01:16:00,79.1,72.8,29.96,SW,221,3.0,8.0,81,0.00,,CLR,0.00,VWS V14.01,2013-08-27 05:16:00,
2013-08-27 01:21:00,79.2,72.5,29.96,WSW,249,3.0,8.0,80,0.00,,CLR,0.00,VWS V14.01,2013-08-27 05:21:00,
2013-08-27 01:26:00,79.2,72.5,29.96,SW,224,0.0,4.0,80,0.00,,CLR,0.00,VWS V14.01,2013-08-27 05:26:00,
2013-08-27 01:30:00,79.2,72.5,29.95,SW,234,0.0,4.0,80,0.00,,SCT033,0.00,VWS V15.00,2013-08-27 05:30:00,
2013-08-27 01:31:00,79.2,72.5,29.95,SW,230,0.0,3.0,80,0.00,,CLR,0.00,VWS V14.01,2013-08-27 05:31:00,
2013-08-27 01:36:00,79.2,72.5,29.95,SW,228,3.0,5.0,80,0.00,,CLR,0.00,VWS V14.01,2013-08-27 05:36:00,
2013-08-27 01:41:00,79.2,72.5,29.95,SW,236,0.0,0.0,80,0.00,,CLR,0.00,VWS V14.01,2013-08-27 05:41:00,
2013-08-27 01:45:00,79.2,72.5,29.95,SW,224,1.0,5.0,80,0.00,,SCT033,0.00,VWS V15.00,2013-08-27 05:45:00,
2013-08-27 01:46:00,79.2,72.5,29.95,SW,235,0.0,6.0,80,0.00,,CLR,0.00,VWS V14.01,2013-08-27 05:46:00,
2013-08-27 01:52:00,79.1,72.4,29.95,SW,215,0.0,6.0,80,0.00,,CLR,0.00,VWS V14.01,2013-08-27 05:52:00,
2013-08-27 01:57:00,79.0,72.3,29.95,SW,224,5.0,6.0,80,0.00,,CLR,0.00,VWS V14.01,2013-08-27 05:57:00,
2013-08-27 02:00:00,79.0,72.3,29.95,SW,233,3.0,11.0,80,0.00,,SCT033,0.00,VWS V15.00,2013-08-27 06:00:00,
2013-08-27 02:02:00,79.0,72.3,29.95,SW,226,3.0,9.0,80,0.00,,FEW110,0.00,VWS V14.01,2013-08-27 06:02:00,
2013-08-27 02:07:00,78.9,72.2,29.95,SW,223,3.0,7.0,80,0.00,,FEW110,0.00,VWS V14.01,2013-08-27 06:07:00,
2013-08-27 02:12:00,78.9,72.2,29.95,SW,234,4.0,8.0,80,0.00,,FEW110,0.00,VWS V14.01,2013-08-27 06:12:00,
2013-08-27 02:15:00,78.9,72.2,29.95,SW,222,3.0,4.0,80,0.00,,SCT033,0.00,VWS V15.00,2013-08-27 06:15:00,
2013-08-27 02:17:00,78.9,72.2,29.95,SSW,212,0.0,6.0,80,0.00,,FEW110,0.00,VWS V14.01,2013-08-27 06:17:00,
2013-08-27 02:22:00,78.9,72.2,29.95,SW,220,0.0,0.0,80,0.00,,FEW110,0.00,VWS V14.01,2013-08-27 06:22:00,
2013-08-27 02:27:00,78.8,72.1,29.95,SW,236,0.0,7.0,80,0.00,,FEW110,0.00,VWS V14.01,2013-08-27 06:27:00,
2013-08-27 02:30:00,78.8,72.1,29.95,WSW,240,6.0,6.0,80,0.00,,SCT033,0.00,VWS V15.00,2013-08-27 06:30:00,
2013-08-27 02:32:00,78.8,72.1,29.95,SW,236,3.0,8.0,80,0.00,,FEW110,0.00,VWS V14.01,2013-08-27 06:32:00,
2013-08-27 02:37:00,78.8,72.1,29.95,SW,232,1.0,6.0,80,0.00,,FEW110,0.00,VWS V14.01,2013-08-27 06:37:00,
2013-08-27 02:42:00,78.8,72.1,29.95,WSW,241,2.0,4.0,80,0.00,,FEW110,0.00,VWS V14.01,2013-08-27 06:42:00,
2013-08-27 02:45:00,78.8,72.1,29.94,SW,227,3.0,6.0,80,0.00,,SCT033,0.00,VWS V15.00,2013-08-27 06:45:00,
2013-08-27 02:47:00,78.8,72.1,29.94,SW,236,4.0,7.0,80,0.00,,FEW110,0.00,VWS V14.01,2013-08-27 06:47:00,
2013-08-27 02:52:00,78.8,72.1,29.95,SW,232,0.0,5.0,80,0.00,,FEW110,0.00,VWS V14.01,2013-08-27 06:52:00,
2013-08-27 02:57:00,78.7,72.0,29.95,SW,221,5.0,5.0,80,0.00,,FEW110,0.00,VWS V14.01,2013-08-27 06:57:00,
2013-08-27 03:00:00,78.7,72.0,29.95,West,261,4.0,4.0,80,0.00,,SCT033,0.00,VWS V15.00,2013-08-27 07:00:00,
2013-08-27 03:02:00,78.7,72.0,29.95,WSW,249,2.0,4.0,80,0.00,,FEW110,0.00,VWS V14.01,2013-08-27 07:02:00,
2013-08-27 03:07:00,78.8,72.1,29.95,SW,226,0.0,1.0,80,0.00,,FEW110,0.00,VWS V14.01,2013-08-27 07:07:00,
2013-08-27 03:12:00,78.8,72.1,29.95,SSW,211,0.0,0.0,80,0.00,,OVC100,0.00,VWS V14.01,2013-08-27 07:12:00,
2013-08-27 03:15:00,78.8,72.1,29.95,SW,230,3.0,5.0,80,0.00,,SCT033,0.00,VWS V15.00,2013-08-27 07:15:00,
2013-08-27 03:17:00,78.8,72.1,29.94,SW,235,0.0,0.0,80,0.00,,OVC100,0.00,VWS V14.01,2013-08-27 07:17:00,
2013-08-27 03:22:00,78.8,72.1,29.94,SW,229,0.0,5.0,80,0.00,,OVC100,0.00,VWS V14.01,2013-08-27 07:22:00,
2013-08-27 03:27:00,78.8,72.1,29.94,WSW,254,0.0,4.0,80,0.00,,OVC100,0.00,VWS V14.01,2013-08-27 07:27:00,
2013-08-27 03:30:00,78.8,72.1,29.94,SW,236,2.0,5.0,80,0.00,,SCT033,0.00,VWS V15.00,2013-08-27 07:30:00,
2013-08-27 03:32:00,78.8,72.1,29.94,WSW,256,0.0,7.0,80,0.00,,OVC100,0.00,VWS V14.01,2013-08-27 07:32:00,
2013-08-27 03:37:00,78.8,72.1,29.93,South,185,7.0,8.0,80,0.00,,OVC100,0.00,VWS V14.01,2013-08-27 07:37:00,
2013-08-27 03:42:00,78.8,72.1,29.93,SW,222,0.0,3.0,80,0.00,,OVC100,0.00,VWS V14.01,2013-08-27 07:42:00,
2013-08-27 03:45:00,78.9,72.2,29.93,WSW,249,0.0,0.0,80,0.00,,SCT033,0.00,VWS V15.00,2013-08-27 07:45:00,
2013-08-27 03:47:00,78.9,72.2,29.93,SW,226,2.0,4.0,80,0.00,,OVC100,0.00,VWS V14.01,2013-08-27 07:47:00,
2013-08-27 03:52:00,78.9,72.2,29.92,SW,234,0.0,0.0,80,0.00,,OVC100,0.00,VWS V14.01,2013-08-27 07:52:00,
2013-08-27 03:57:00,78.9,72.2,29.93,WSW,243,0.0,0.0,80,0.00,,OVC100,0.00,VWS V14.01,2013-08-27 07:57:00,
2013-08-27 04:00:00,78.9,72.2,29.93,WSW,253,0.0,3.0,80,0.00,,SCT033,0.00,VWS V15.00,2013-08-27 08:00:00,
2013-08-27 04:02:00,78.9,72.2,29.93,WSW,243,6.0,7.0,80,0.00,,FEW120,0.00,VWS V14.01,2013-08-27 08:02:00,
2013-08-27 04:07:00,78.9,72.2,29.93,SW,232,3.0,7.0,80,0.00,,FEW120,0.00,VWS V14.01,2013-08-27 08:07:00,
2013-08-27 04:12:00,78.9,72.2,29.93,WSW,247,0.0,5.0,80,0.00,,FEW120,0.00,VWS V14.01,2013-08-27 08:12:00,
2013-08-27 04:15:00,79.0,72.3,29.93,WSW,251,0.0,6.0,80,0.00,,SCT033,0.00,VWS V15.00,2013-08-27 08:15:00,
2013-08-27 04:17:00,79.0,72.3,29.93,WSW,249,0.0,0.0,80,0.00,,FEW120,0.00,VWS V14.01,2013-08-27 08:17:00,
2013-08-27 04:22:00,79.0,71.9,29.93,West,265,7.0,7.0,79,0.00,,FEW120,0.00,VWS V14.01,2013-08-27 08:22:00,
2013-08-27 04:27:00,79.0,72.3,29.93,WSW,248,7.0,10.0,80,0.00,,FEW120,0.00,VWS V14.01,2013-08-27 08:27:00,
2013-08-27 04:30:00,79.0,72.3,29.93,WSW,250,6.0,10.0,80,0.00,,SCT033,0.00,VWS V15.00,2013-08-27 08:30:00,
2013-08-27 04:32:00,79.0,71.9,29.93,West,263,4.0,8.0,79,0.00,,FEW120,0.00,VWS V14.01,2013-08-27 08:32:00,
2013-08-27 04:37:00,79.1,72.4,29.93,SW,232,2.0,12.0,80,0.00,,FEW120,0.00,VWS V14.01,2013-08-27 08:37:00,
2013-08-27 04:42:00,79.0,72.7,29.93,West,265,3.0,7.0,81,0.01,,FEW120,0.01,VWS V14.01,2013-08-27 08:42:00,
2013-08-27 04:45:00,78.9,72.9,29.93,West,280,0.0,5.0,82,0.02,,SCT033,0.02,VWS V15.00,2013-08-27 08:45:00,
2013-08-27 04:47:00,78.8,72.8,29.93,West,261,0.0,8.0,82,0.02,,FEW120,0.02,VWS V14.01,2013-08-27 08:47:00,
2013-08-27 04:52:00,78.4,72.8,29.94,West,274,3.0,8.0,83,0.02,,FEW120,0.02,VWS V14.01,2013-08-27 08:52:00,
2013-08-27 04:57:00,78.1,72.5,29.94,WNW,288,6.0,8.0,83,0.02,,FEW120,0.02,VWS V14.01,2013-08-27 08:57:00,
2013-08-27 05:00:00,78.0,72.8,29.94,West,260,6.0,8.0,84,0.02,,SCT033,0.02,VWS V15.00,2013-08-27 09:00:00,
2013-08-27 05:02:00,77.8,72.6,29.94,West,263,7.0,8.0,84,0.02,,OVC100,0.02,VWS V14.01,2013-08-27 09:02:00,
2013-08-27 05:08:00,77.6,72.7,29.94,West,265,0.0,0.0,85,0.02,,OVC100,0.02,VWS V14.01,2013-08-27 09:08:00,
2013-08-27 05:13:00,77.5,72.6,29.94,West,261,0.0,0.0,85,0.02,,OVC100,0.02,VWS V14.01,2013-08-27 09:13:00,
2013-08-27 05:15:00,77.5,72.6,29.94,West,267,0.0,0.0,85,0.02,,SCT033,0.02,VWS V15.00,2013-08-27 09:15:00,
2013-08-27 05:18:00,77.3,72.8,29.95,West,268,0.0,0.0,86,0.02,,OVC100,0.02,VWS V14.01,2013-08-27 09:18:00,
2013-08-27 05:23:00,77.2,72.7,29.95,West,268,0.0,0.0,86,0.03,, +RA,0.03,VWS V14.01,2013-08-27 09:23:00,
2013-08-27 05:28:00,77.1,72.9,29.95,WNW,297,0.0,0.0,87,0.03,, +RA,0.03,VWS V14.01,2013-08-27 09:28:00,
2013-08-27 05:30:00,76.9,72.7,29.95,WNW,302,0.0,1.0,87,0.03,,SCT033,0.03,VWS V15.00,2013-08-27 09:30:00,
2013-08-27 05:33:00,76.9,72.7,29.96,NW,307,2.0,5.0,87,0.03,, +RA,0.03,VWS V14.01,2013-08-27 09:33:00,
2013-08-27 05:38:00,76.7,72.5,29.96,WNW,301,3.0,4.0,87,0.03,, +RA,0.03,VWS V14.01,2013-08-27 09:38:00,
2013-08-27 05:43:00,76.5,72.7,29.97,WNW,300,5.0,10.0,88,0.03,,-RA,0.03,VWS V14.01,2013-08-27 09:43:00,
2013-08-27 05:45:00,76.5,72.7,29.97,WNW,303,3.0,6.0,88,0.04,,SCT033,0.04,VWS V15.00,2013-08-27 09:45:00,
2013-08-27 05:48:00,76.4,72.6,29.97,WNW,289,0.0,0.0,88,0.02,,-RA,0.04,VWS V14.01,2013-08-27 09:48:00,
2013-08-27 05:53:00,76.3,72.8,29.98,WNW,286,6.0,6.0,89,0.02,,-RA,0.04,VWS V14.01,2013-08-27 09:53:00,
2013-08-27 05:58:00,76.2,72.7,29.99,West,263,6.0,8.0,89,0.03,,-RA,0.05,VWS V14.01,2013-08-27 09:58:00,
2013-08-27 06:00:00,76.1,72.6,29.99,WNW,287,7.0,12.0,89,0.06,,SCT033,0.08,VWS V15.00,2013-08-27 10:00:00,
2013-08-27 06:03:00,76.0,72.5,29.99,NNW,346,4.0,10.0,89,0.18,,-RA,0.20,VWS V14.01,2013-08-27 10:03:00,
2013-08-27 06:08:00,75.9,72.8,29.98,NNE,25,4.0,9.0,90,0.23,,-RA,0.25,VWS V14.01,2013-08-27 10:08:00,
2013-08-27 06:13:00,75.7,72.6,29.96,NNW,346,0.0,2.0,90,0.27,,-RA,0.29,VWS V14.01,2013-08-27 10:13:00,
2013-08-27 06:15:00,75.6,72.5,29.97,NW,326,6.0,7.0,90,0.27,,SCT033,0.29,VWS V15.00,2013-08-27 10:15:00,
2013-08-27 06:18:00,75.5,72.4,29.98,West,279,0.0,0.0,90,0.27,,-RA,0.29,VWS V14.01,2013-08-27 10:18:00,
2013-08-27 06:23:00,75.3,72.2,29.98,WNW,283,0.0,0.0,90,0.28,,-RA,0.30,VWS V14.01,2013-08-27 10:23:00,
2013-08-27 06:28:00,75.1,72.0,29.97,WNW,286,0.0,0.0,90,0.28,,-RA,0.30,VWS V14.01,2013-08-27 10:28:00,
2013-08-27 06:30:00,75.1,72.3,29.97,WNW,286,0.0,0.0,91,0.29,,SCT033,0.31,VWS V15.00,2013-08-27 10:30:00,
2013-08-27 06:33:00,75.1,72.3,29.97,WNW,286,0.0,0.0,91,0.29,,-RA,0.32,VWS V14.01,2013-08-27 10:33:00,
2013-08-27 06:38:00,75.0,72.2,29.97,WNW,286,0.0,0.0,91,0.29,,-RA,0.32,VWS V14.01,2013-08-27 10:38:00,
2013-08-27 06:43:00,74.9,72.1,29.97,WNW,286,0.0,0.0,91,0.30,,,0.33,VWS V14.01,2013-08-27 10:43:00,
2013-08-27 06:45:00,74.8,72.0,29.98,WNW,286,0.0,0.0,91,0.30,,SCT033,0.33,VWS V15.00,2013-08-27 10:45:00,
2013-08-27 06:48:00,74.7,71.9,29.98,WNW,286,0.0,0.0,91,0.29,,,0.33,VWS V14.01,2013-08-27 10:48:00,
2013-08-27 06:53:00,74.5,71.7,29.99,WNW,286,0.0,0.0,91,0.29,,,0.33,VWS V14.01,2013-08-27 10:53:00,
2013-08-27 06:58:00,74.3,71.5,29.98,WNW,286,0.0,0.0,91,0.29,,,0.33,VWS V14.01,2013-08-27 10:58:00,
2013-08-27 07:00:00,74.2,71.4,29.97,WNW,286,0.0,0.0,91,0.29,,SCT033,0.33,VWS V15.00,2013-08-27 11:00:00,
2013-08-27 07:03:00,74.1,71.3,29.98,WNW,286,0.0,0.0,91,0.26,,,0.34,VWS V14.01,2013-08-27 11:03:00,
2013-08-27 07:08:00,74.0,71.2,29.98,WNW,286,0.0,0.0,91,0.26,,,0.34,VWS V14.01,2013-08-27 11:08:00,
2013-08-27 07:13:00,73.9,71.1,29.98,WNW,286,0.0,0.0,91,0.26,,,0.34,VWS V14.01,2013-08-27 11:13:00,
2013-08-27 07:15:00,73.8,71.0,29.98,WNW,286,0.0,0.0,91,0.26,,SCT033,0.34,VWS V15.00,2013-08-27 11:15:00,
2013-08-27 07:18:00,73.8,71.0,29.97,WNW,286,0.0,0.0,91,0.05,,,0.34,VWS V14.01,2013-08-27 11:18:00,
2013-08-27 07:23:00,73.8,71.0,29.97,WNW,286,0.0,0.0,91,0.05,,-RA,0.34,VWS V14.01,2013-08-27 11:23:00,
2013-08-27 07:28:00,73.7,70.9,29.97,WNW,286,0.0,0.0,91,0.06,,-RA,0.35,VWS V14.01,2013-08-27 11:28:00,
2013-08-27 07:30:00,73.6,70.8,29.97,WNW,286,0.0,0.0,91,0.06,,SCT033,0.35,VWS V15.00,2013-08-27 11:30:00,
2013-08-27 07:33:00,73.6,70.8,29.96,WNW,297,0.0,0.0,91,0.04,,-RA,0.35,VWS V14.01,2013-08-27 11:33:00,
2013-08-27 07:38:00,73.6,70.8,29.96,WNW,303,0.0,0.0,91,0.04,,-RA,0.35,VWS V14.01,2013-08-27 11:38:00,
2013-08-27 07:43:00,73.5,70.7,29.97,NW,304,0.0,0.0,91,0.04,,-RA,0.35,VWS V14.01,2013-08-27 11:43:00,
2013-08-27 07:45:00,73.5,70.7,29.96,NW,304,0.0,0.0,91,0.04,,SCT033,0.35,VWS V15.00,2013-08-27 11:45:00,
2013-08-27 07:48:00,73.5,71.0,29.96,NW,304,0.0,0.0,92,0.02,,-RA,0.35,VWS V14.01,2013-08-27 11:48:00,
2013-08-27 07:53:00,73.4,70.9,29.96,WNW,301,0.0,0.0,92,0.02,,-RA,0.35,VWS V14.01,2013-08-27 11:53:00,
2013-08-27 07:58:00,73.3,70.8,29.96,WNW,301,0.0,0.0,92,0.02,,-RA,0.35,VWS V14.01,2013-08-27 11:58:00,
2013-08-27 08:00:00,73.3,70.8,29.96,WNW,301,0.0,0.0,92,0.02,,SCT033,0.35,VWS V15.00,2013-08-27 12:00:00,
2013-08-27 08:03:00,73.3,70.8,29.95,WNW,301,0.0,0.0,92,0.02,,-RA,0.35,VWS V14.01,2013-08-27 12:03:00,
2013-08-27 08:08:00,73.2,70.7,29.96,WNW,301,0.0,0.0,92,0.02,,-RA,0.35,VWS V14.01,2013-08-27 12:08:00,
2013-08-27 08:13:00,73.2,70.7,29.96,WNW,302,0.0,0.0,92,0.02,,-RA,0.35,VWS V14.01,2013-08-27 12:13:00,
2013-08-27 08:15:00,73.2,70.7,29.95,WNW,302,0.0,0.0,92,0.02,,SCT033,0.35,VWS V15.00,2013-08-27 12:15:00,
2013-08-27 08:18:00,73.1,70.6,29.95,WNW,299,0.0,0.0,92,0.01,,-RA,0.35,VWS V14.01,2013-08-27 12:18:00,
2013-08-27 08:23:00,73.1,70.6,29.95,WNW,300,0.0,0.0,92,0.01,,-RA,0.35,VWS V14.01,2013-08-27 12:23:00,
2013-08-27 08:28:00,73.3,70.8,29.95,SE,140,0.0,0.0,92,0.01,,-RA,0.35,VWS V14.01,2013-08-27 12:28:00,
2013-08-27 08:30:00,73.3,71.2,29.94,SE,132,0.0,0.0,93,0.01,,SCT033,0.35,VWS V15.00,2013-08-27 12:30:00,
2013-08-27 08:34:00,73.4,70.9,29.95,SE,132,0.0,0.0,92,0.00,,-RA,0.35,VWS V14.01,2013-08-27 12:34:00,
2013-08-27 08:39:00,73.5,71.4,29.95,SE,132,0.0,0.0,93,0.00,,-RA,0.35,VWS V14.01,2013-08-27 12:39:00,
2013-08-27 08:44:00,73.6,71.5,29.95,SE,133,0.0,0.0,93,0.00,,-RA,0.35,VWS V14.01,2013-08-27 12:44:00,
2013-08-27 08:45:00,73.8,71.7,29.95,SE,133,0.0,0.0,93,0.00,,SCT033,0.35,VWS V15.00,2013-08-27 12:45:00,
2013-08-27 08:49:00,73.9,71.8,29.95,SE,133,0.0,0.0,93,0.00,,-RA,0.35,VWS V14.01,2013-08-27 12:49:00,
2013-08-27 08:54:00,74.0,71.8,29.95,ESE,112,0.0,0.0,93,0.00,,-RA,0.35,VWS V14.01,2013-08-27 12:54:00,
2013-08-27 08:59:00,74.2,72.1,29.95,SE,124,0.0,0.0,93,0.00,,-RA,0.35,VWS V14.01,2013-08-27 12:59:00,
2013-08-27 09:00:00,74.2,72.1,29.95,SE,125,0.0,0.0,93,0.00,,SCT033,0.35,VWS V15.00,2013-08-27 13:00:00,
2013-08-27 09:04:00,74.3,72.2,29.95,SE,138,0.0,0.0,93,0.00,,-RA,0.35,VWS V14.01,2013-08-27 13:04:00,
2013-08-27 09:09:00,74.4,72.2,29.95,SE,138,0.0,0.0,93,0.00,,-RA,0.35,VWS V14.01,2013-08-27 13:09:00,
2013-08-27 09:14:00,74.5,72.3,29.94,SSE,153,0.0,0.0,93,0.00,,-RA,0.35,VWS V14.01,2013-08-27 13:14:00,
2013-08-27 09:15:00,74.5,72.3,29.94,SSE,153,0.0,0.0,93,0.00,,SCT033,0.35,VWS V15.00,2013-08-27 13:15:00,
2013-08-27 09:19:00,74.6,72.4,29.94,SSE,162,0.0,0.0,93,0.00,,-RA,0.35,VWS V14.01,2013-08-27 13:19:00,
2013-08-27 09:24:00,74.7,72.6,29.94,SSE,162,0.0,0.0,93,0.00,,,0.35,VWS V14.01,2013-08-27 13:24:00,
2013-08-27 09:29:00,74.9,72.7,29.94,SSE,155,0.0,0.0,93,0.00,,,0.35,VWS V14.01,2013-08-27 13:29:00,
2013-08-27 09:30:00,75.0,72.8,29.94,SSE,155,0.0,0.0,93,0.00,,SCT033,0.35,VWS V15.00,2013-08-27 13:30:00,
2013-08-27 09:34:00,75.2,73.4,29.94,South,170,0.0,5.0,94,0.00,,,0.35,VWS V14.01,2013-08-27 13:34:00,
2013-08-27 09:39:00,75.5,73.7,29.94,South,174,6.0,9.0,94,0.00,,,0.35,VWS V14.01,2013-08-27 13:39:00,
2013-08-27 09:44:00,75.8,73.9,29.94,South,182,3.0,3.0,94,0.00,,,0.35,VWS V14.01,2013-08-27 13:44:00,
2013-08-27 09:45:00,75.9,74.1,29.94,South,181,6.0,7.0,94,0.00,,SCT033,0.35,VWS V15.00,2013-08-27 13:45:00,
2013-08-27 09:49:00,76.2,74.3,29.93,South,186,0.0,4.0,94,0.00,,,0.35,VWS V14.01,2013-08-27 13:49:00,
2013-08-27 09:54:00,76.3,74.4,29.93,South,191,6.0,6.0,94,0.00,,,0.35,VWS V14.01,2013-08-27 13:54:00,
2013-08-27 09:59:00,76.3,74.1,29.93,South,188,0.0,0.0,93,0.00,,,0.35,VWS V14.01,2013-08-27 13:59:00,
2013-08-27 10:00:00,76.3,74.1,29.93,South,188,0.0,0.0,93,0.00,,SCT033,0.35,VWS V15.00,2013-08-27 14:00:00,
2013-08-27 10:04:00,76.4,74.2,29.93,South,178,4.0,7.0,93,0.00,,,0.35,VWS V14.01,2013-08-27 14:04:00,
2013-08-27 10:09:00,76.4,74.2,29.93,South,184,0.0,6.0,93,0.00,,,0.35,VWS V14.01,2013-08-27 14:09:00,
2013-08-27 10:14:00,76.5,74.3,29.93,South,186,5.0,8.0,93,0.00,,,0.35,VWS V14.01,2013-08-27 14:14:00,
2013-08-27 10:15:00,76.5,74.3,29.93,South,184,0.0,6.0,93,0.00,,SCT033,0.35,VWS V15.00,2013-08-27 14:15:00,
2013-08-27 10:19:00,76.6,74.4,29.93,South,180,5.0,5.0,93,0.00,,,0.35,VWS V14.01,2013-08-27 14:19:00,
2013-08-27 10:24:00,76.7,74.5,29.93,South,181,0.0,5.0,93,0.00,,,0.35,VWS V14.01,2013-08-27 14:24:00,
2013-08-27 10:29:00,76.8,74.6,29.93,South,174,0.0,6.0,93,0.00,,,0.35,VWS V14.01,2013-08-27 14:29:00,
2013-08-27 10:30:00,76.8,74.6,29.93,South,174,0.0,0.0,93,0.00,,SCT033,0.35,VWS V15.00,2013-08-27 14:30:00,
2013-08-27 10:34:00,77.0,74.8,29.93,South,170,0.0,4.0,93,0.00,,,0.35,VWS V14.01,2013-08-27 14:34:00,
2013-08-27 10:39:00,77.1,74.9,29.93,South,170,2.0,4.0,93,0.00,,,0.35,VWS V14.01,2013-08-27 14:39:00,
2013-08-27 10:44:00,77.3,75.1,29.93,SSW,201,0.0,0.0,93,0.00,,,0.35,VWS V14.01,2013-08-27 14:44:00,
2013-08-27 10:45:00,77.4,75.2,29.93,SSW,201,0.0,0.0,93,0.00,,SCT033,0.35,VWS V15.00,2013-08-27 14:45:00,
2013-08-27 10:49:00,77.6,75.4,29.93,SSW,193,0.0,1.0,93,0.00,,,0.35,VWS V14.01,2013-08-27 14:49:00,
2013-08-27 10:54:00,77.9,75.7,29.93,South,187,0.0,0.0,93,0.00,,,0.35,VWS V14.01,2013-08-27 14:54:00,
2013-08-27 10:59:00,78.2,75.7,29.93,South,187,0.0,0.0,92,0.00,,,0.35,VWS V14.01,2013-08-27 14:59:00,
2013-08-27 11:00:00,78.2,75.7,29.93,South,187,0.0,0.0,92,0.00,,SCT033,0.35,VWS V15.00,2013-08-27 15:00:00,
2013-08-27 11:04:00,78.5,76.0,29.93,South,187,0.0,0.0,92,0.00,,,0.35,VWS V14.01,2013-08-27 15:04:00,
2013-08-27 11:09:00,78.8,76.3,29.93,South,187,0.0,0.0,92,0.00,,,0.35,VWS V14.01,2013-08-27 15:09:00,
2013-08-27 11:14:00,79.0,76.2,29.93,SSE,156,0.0,8.0,91,0.00,,OVC180,0.35,VWS V14.01,2013-08-27 15:14:00,
2013-08-27 11:15:00,79.0,76.2,29.93,SSE,157,1.0,6.0,91,0.00,,SCT033,0.35,VWS V15.00,2013-08-27 15:15:00,
2013-08-27 11:19:00,79.4,76.2,29.92,SSE,163,4.0,7.0,90,0.00,,OVC180,0.35,VWS V14.01,2013-08-27 15:19:00,
2013-08-27 11:24:00,80.1,76.9,29.92,SSE,168,0.0,4.0,90,0.00,,OVC180,0.35,VWS V14.01,2013-08-27 15:24:00,
2013-08-27 11:29:00,80.3,76.8,29.92,South,178,2.0,8.0,89,0.00,,OVC180,0.35,VWS V14.01,2013-08-27 15:29:00,
2013-08-27 11:30:00,80.4,76.5,29.92,South,176,5.0,8.0,88,0.00,,SCT033,0.35,VWS V15.00,2013-08-27 15:30:00,
2013-08-27 11:34:00,80.7,76.5,29.92,SSE,152,1.0,7.0,87,0.00,,OVC180,0.35,VWS V14.01,2013-08-27 15:34:00,
2013-08-27 11:39:00,81.2,76.6,29.92,South,184,7.0,9.0,86,0.00,,OVC180,0.35,VWS V14.01,2013-08-27 15:39:00,
2013-08-27 11:44:00,81.6,76.7,29.92,SSW,195,0.0,5.0,85,0.00,,OVC180,0.35,VWS V14.01,2013-08-27 15:44:00,
2013-08-27 11:45:00,81.7,76.8,29.92,SSW,195,1.0,5.0,85,0.00,,SCT033,0.35,VWS V15.00,2013-08-27 15:45:00,
2013-08-27 11:49:00,81.9,76.6,29.92,SSW,196,7.0,9.0,84,0.00,,OVC180,0.35,VWS V14.01,2013-08-27 15:49:00,
2013-08-27 11:55:00,82.1,76.4,29.92,SSW,203,0.0,8.0,83,0.00,,OVC180,0.35,VWS V14.01,2013-08-27 15:55:00,
2013-08-27 12:00:00,82.2,76.2,29.92,South,188,0.0,10.0,82,0.00,,OVC180,0.35,VWS V14.01,2013-08-27 16:00:00,
2013-08-27 12:05:00,82.5,76.4,29.92,South,181,5.0,8.0,82,0.00,,OVC200,0.35,VWS V14.01,2013-08-27 16:05:00,
2013-08-27 12:10:00,83.0,76.9,29.92,South,183,0.0,0.0,82,0.00,,OVC200,0.35,VWS V14.01,2013-08-27 16:10:00,
2013-08-27 12:15:00,83.5,77.1,29.92,SSW,211,0.0,11.0,81,0.00,,OVC200,0.35,VWS V14.01,2013-08-27 16:15:00,
2013-08-27 12:20:00,83.7,76.5,29.92,South,182,0.0,9.0,79,0.00,,OVC200,0.35,VWS V14.01,2013-08-27 16:20:00,
2013-08-27 12:25:00,83.9,76.7,29.92,SSW,197,7.0,8.0,79,0.00,,OVC200,0.35,VWS V14.01,2013-08-27 16:25:00,
2013-08-27 12:30:00,83.9,76.3,29.92,SSW,202,0.0,2.0,78,0.00,,OVC200,0.35,VWS V14.01,2013-08-27 16:30:00,
2013-08-27 12:35:00,84.0,76.4,29.92,SSW,203,1.0,1.0,78,0.00,,OVC200,0.35,VWS V14.01,2013-08-27 16:35:00,
2013-08-27 12:40:00,84.0,76.4,29.91,SSW,203,5.0,6.0,78,0.00,,OVC200,0.35,VWS V14.01,2013-08-27 16:40:00,
2013-08-27 12:45:00,83.9,75.9,29.91,SSW,204,4.0,7.0,77,0.00,,OVC200,0.35,VWS V14.01,2013-08-27 16:45:00,
2013-08-27 12:50:00,83.8,75.8,29.92,SSW,207,0.0,8.0,77,0.00,,OVC200,0.35,VWS V14.01,2013-08-27 16:50:00,
2013-08-27 12:55:00,83.7,76.1,29.91,SSW,213,4.0,7.0,78,0.00,,OVC200,0.35,VWS V14.01,2013-08-27 16:55:00,
2013-08-27 13:00:00,83.6,76.0,29.91,SSW,210,6.0,7.0,78,0.00,,OVC200,0.35,VWS V14.01,2013-08-27 17:00:00,
2013-08-27 13:05:00,83.5,75.9,29.91,SSW,207,0.0,6.0,78,0.00,,OVC200,0.35,VWS V14.01,2013-08-27 17:05:00,
2013-08-27 13:10:00,83.5,76.3,29.90,SSW,207,0.0,0.0,79,0.00,,OVC200,0.35,VWS V14.01,2013-08-27 17:10:00,
2013-08-27 13:15:00,83.6,76.4,29.90,SSW,207,0.0,7.0,79,0.00,,OVC200,0.35,VWS V14.01,2013-08-27 17:15:00,
2013-08-27 13:20:00,83.7,76.5,29.90,SSW,207,0.0,0.0,79,0.00,,OVC200,0.35,VWS V14.01,2013-08-27 17:20:00,
2013-08-27 13:25:00,83.9,76.7,29.90,SSW,207,0.0,0.0,79,0.00,,OVC200,0.35,VWS V14.01,2013-08-27 17:25:00,
2013-08-27 13:30:00,84.0,76.8,29.90,SSW,207,2.0,7.0,79,0.00,,OVC200,0.35,VWS V14.01,2013-08-27 17:30:00,
2013-08-27 13:35:00,84.1,76.5,29.90,SW,228,4.0,8.0,78,0.00,,OVC200,0.35,VWS V14.01,2013-08-27 17:35:00,
2013-08-27 13:40:00,84.3,76.7,29.89,SW,219,8.0,10.0,78,0.00,,OVC200,0.35,VWS V14.01,2013-08-27 17:40:00,
2013-08-27 13:45:00,84.8,77.2,29.89,SSW,212,5.0,8.0,78,0.00,,OVC200,0.35,VWS V14.01,2013-08-27 17:45:00,
2013-08-27 13:50:00,85.5,77.1,29.89,SSW,203,1.0,9.0,76,0.00,,OVC200,0.35,VWS V14.01,2013-08-27 17:50:00,
2013-08-27 13:55:00,86.1,76.8,29.89,SW,220,2.0,5.0,74,0.00,,OVC200,0.35,VWS V14.01,2013-08-27 17:55:00,
2013-08-27 14:00:00,86.8,77.1,29.89,SSW,192,0.0,7.0,73,0.00,,OVC200,0.35,VWS V14.01,2013-08-27 18:00:00,
2013-08-27 14:05:00,87.3,76.3,29.89,South,180,1.0,7.0,70,0.00,,OVC200,0.35,VWS V14.01,2013-08-27 18:05:00,
2013-08-27 14:10:00,87.7,76.7,29.89,SSW,194,0.0,3.0,70,0.00,,BKN210,0.35,VWS V14.01,2013-08-27 18:10:00,
2013-08-27 14:15:00,88.2,76.8,29.89,South,183,4.0,5.0,69,0.00,,BKN210,0.35,VWS V14.01,2013-08-27 18:15:00,
2013-08-27 14:20:00,88.5,76.6,29.89,South,188,0.0,12.0,68,0.00,,BKN210,0.35,VWS V14.01,2013-08-27 18:20:00,
2013-08-27 14:25:00,88.5,76.2,29.89,SW,226,2.0,12.0,67,0.00,,BKN210,0.35,VWS V14.01,2013-08-27 18:25:00,
2013-08-27 14:30:00,88.5,75.7,29.88,SW,219,0.0,10.0,66,0.01,,BKN210,0.36,VWS V14.01,2013-08-27 18:30:00,
2013-08-27 14:35:00,88.5,76.2,29.88,SSW,201,0.0,6.0,67,0.01,,BKN210,0.36,VWS V14.01,2013-08-27 18:35:00,
2013-08-27 14:40:00,88.6,75.8,29.88,SSW,209,1.0,7.0,66,0.01,,BKN210,0.36,VWS V14.01,2013-08-27 18:40:00,
2013-08-27 14:45:00,88.6,75.8,29.88,SSW,203,5.0,7.0,66,0.01,,BKN210,0.36,VWS V14.01,2013-08-27 18:45:00,
2013-08-27 14:50:00,88.7,75.9,29.88,SW,222,0.0,5.0,66,0.01,,BKN210,0.36,VWS V14.01,2013-08-27 18:50:00,
2013-08-27 14:55:00,88.7,75.9,29.87,SSW,206,0.0,3.0,66,0.01,,BKN210,0.36,VWS V14.01,2013-08-27 18:55:00,
2013-08-27 15:00:00,88.9,76.5,29.87,South,176,0.0,5.0,67,0.01,,BKN210,0.36,VWS V14.01,2013-08-27 19:00:00,
2013-08-27 15:05:00,89.2,75.9,29.87,SSW,197,0.0,7.0,65,0.01,,BKN210,0.36,VWS V14.01,2013-08-27 19:05:00,
2013-08-27 15:10:00,89.5,76.2,29.87,SSW,202,1.0,10.0,65,0.01,,BKN210,0.36,VWS V14.01,2013-08-27 19:10:00,
2013-08-27 15:15:00,89.6,75.8,29.87,SW,232,3.0,11.0,64,0.01,,BKN210,0.36,VWS V14.01,2013-08-27 19:15:00,
2013-08-27 15:20:00,89.6,75.3,29.87,SSW,213,2.0,6.0,63,0.01,,BKN210,0.36,VWS V14.01,2013-08-27 19:20:00,
2013-08-27 15:25:00,89.7,75.4,29.86,South,190,0.0,7.0,63,0.01,,BKN210,0.36,VWS V14.01,2013-08-27 19:25:00,
2013-08-27 15:30:00,89.8,76.0,29.86,South,174,8.0,9.0,64,0.01,,SCT033,0.36,VWS V15.00,2013-08-27 19:30:00,
2013-08-27 15:31:00,89.9,76.1,29.86,South,177,5.0,10.0,64,0.00,,BKN210,0.36,VWS V14.01,2013-08-27 19:31:00,
2013-08-27 15:36:00,90.2,76.4,29.86,South,170,5.0,8.0,64,0.00,,BKN210,0.36,VWS V14.01,2013-08-27 19:36:00,
2013-08-27 15:41:00,90.6,75.8,29.86,South,170,9.0,11.0,62,0.00,,BKN210,0.36,VWS V14.01,2013-08-27 19:41:00,
2013-08-27 15:45:00,90.9,76.1,29.86,SSW,195,5.0,10.0,62,0.00,,SCT033,0.36,VWS V15.00,2013-08-27 19:45:00,
2013-08-27 15:46:00,91.0,75.7,29.86,SW,215,4.0,7.0,61,0.00,,BKN210,0.36,VWS V14.01,2013-08-27 19:46:00,
2013-08-27 15:51:00,91.1,75.8,29.86,SSE,166,0.0,7.0,61,0.00,,BKN210,0.36,VWS V14.01,2013-08-27 19:51:00,
2013-08-27 15:56:00,91.2,75.9,29.85,South,172,3.0,4.0,61,0.00,,BKN210,0.36,VWS V14.01,2013-08-27 19:56:00,
2013-08-27 16:00:00,91.3,75.5,29.85,SSE,162,0.0,6.0,60,0.00,,SCT033,0.36,VWS V15.00,2013-08-27 20:00:00,
2013-08-27 16:01:00,91.3,75.5,29.85,SSE,154,3.0,5.0,60,0.00,,BKN210,0.36,VWS V14.01,2013-08-27 20:01:00,
2013-08-27 16:06:00,91.5,75.7,29.84,South,181,0.0,9.0,60,0.00,,BKN210,0.36,VWS V14.01,2013-08-27 20:06:00,
2013-08-27 16:11:00,91.6,75.2,29.84,SW,214,5.0,10.0,59,0.00,,BKN210,0.36,VWS V14.01,2013-08-27 20:11:00,
2013-08-27 16:15:00,91.8,75.4,29.84,SSW,199,7.0,12.0,59,0.00,,SCT033,0.36,VWS V15.00,2013-08-27 20:15:00,
2013-08-27 16:16:00,91.8,75.9,29.84,SW,231,5.0,12.0,60,0.00,,BKN210,0.36,VWS V14.01,2013-08-27 20:16:00,
2013-08-27 16:21:00,92.1,74.7,29.84,SW,224,11.0,11.0,57,0.00,,BKN210,0.36,VWS V14.01,2013-08-27 20:21:00,
2013-08-27 16:26:00,92.3,75.4,29.84,SSW,196,3.0,9.0,58,0.00,,BKN210,0.36,VWS V14.01,2013-08-27 20:26:00,
2013-08-27 16:30:00,92.4,75.0,29.83,SSW,207,10.0,13.0,57,0.00,,SCT033,0.36,VWS V15.00,2013-08-27 20:30:00,
2013-08-27 16:31:00,92.4,75.0,29.83,SSW,201,14.0,14.0,57,0.00,,BKN210,0.36,VWS V14.01,2013-08-27 20:31:00,
2013-08-27 16:36:00,92.4,75.5,29.83,South,189,3.0,7.0,58,0.00,,BKN210,0.36,VWS V14.01,2013-08-27 20:36:00,
2013-08-27 16:41:00,92.6,75.2,29.83,South,180,8.0,14.0,57,0.00,,BKN210,0.36,VWS V14.01,2013-08-27 20:41:00,
2013-08-27 16:45:00,92.7,74.7,29.83,SSW,204,7.0,16.0,56,0.00,,SCT033,0.36,VWS V15.00,2013-08-27 20:45:00,
2013-08-27 16:46:00,92.7,74.7,29.83,SSW,195,4.0,12.0,56,0.00,,BKN210,0.36,VWS V14.01,2013-08-27 20:46:00,
2013-08-27 16:51:00,92.5,74.5,29.83,South,181,12.0,12.0,56,0.00,,BKN210,0.36,VWS V14.01,2013-08-27 20:51:00,
2013-08-27 16:56:00,92.2,73.7,29.83,South,186,4.0,12.0,55,0.00,,BKN210,0.36,VWS V14.01,2013-08-27 20:56:00,
2013-08-27 17:00:00,91.8,73.3,29.83,SW,236,12.0,12.0,55,0.00,,SCT033,0.36,VWS V15.00,2013-08-27 21:00:00,
2013-08-27 17:01:00,91.7,73.8,29.83,SSW,205,8.0,10.0,56,0.00,,BKN210,0.36,VWS V14.01,2013-08-27 21:01:00,
2013-08-27 17:06:00,91.2,73.3,29.83,SSW,197,7.0,16.0,56,0.00,,BKN210,0.36,VWS V14.01,2013-08-27 21:06:00,
2013-08-27 17:11:00,90.6,72.2,29.82,SSW,209,4.0,13.0,55,0.00,,BKN210,0.36,VWS V14.01,2013-08-27 21:11:00,
2013-08-27 17:15:00,90.3,72.5,29.82,SSW,198,6.0,13.0,56,0.00,,SCT033,0.36,VWS V15.00,2013-08-27 21:15:00,
2013-08-27 17:16:00,90.1,72.3,29.82,SSW,209,0.0,5.0,56,0.00,,BKN210,0.36,VWS V14.01,2013-08-27 21:16:00,
2013-08-27 17:21:00,89.8,72.6,29.82,SSW,204,8.0,11.0,57,0.00,,BKN210,0.36,VWS V14.01,2013-08-27 21:21:00,
2013-08-27 17:26:00,89.5,72.3,29.82,SW,236,0.0,15.0,57,0.00,,BKN210,0.36,VWS V14.01,2013-08-27 21:26:00,
2013-08-27 17:30:00,89.3,72.1,29.82,SW,231,3.0,4.0,57,0.00,,SCT033,0.36,VWS V15.00,2013-08-27 21:30:00,
2013-08-27 17:32:00,89.3,72.6,29.82,SSW,194,9.0,15.0,58,0.00,,BKN210,0.36,VWS V14.01,2013-08-27 21:32:00,
2013-08-27 17:37:00,89.1,72.4,29.82,SW,234,4.0,8.0,58,0.00,,BKN210,0.36,VWS V14.01,2013-08-27 21:37:00,
2013-08-27 17:42:00,88.8,72.6,29.82,SW,215,2.0,11.0,59,0.00,,BKN210,0.36,VWS V14.01,2013-08-27 21:42:00,
2013-08-27 17:45:00,88.7,72.5,29.82,SW,236,0.0,7.0,59,0.00,,SCT033,0.36,VWS V15.00,2013-08-27 21:45:00,
2013-08-27 17:47:00,88.6,72.4,29.82,SSE,164,0.0,10.0,59,0.00,,BKN210,0.36,VWS V14.01,2013-08-27 21:47:00,
2013-08-27 17:52:00,88.5,72.3,29.82,SSW,201,2.0,7.0,59,0.00,,BKN210,0.36,VWS V14.01,2013-08-27 21:52:00,
2013-08-27 17:57:00,88.3,72.7,29.82,SSW,198,6.0,6.0,60,0.00,,BKN210,0.36,VWS V14.01,2013-08-27 21:57:00,
2013-08-27 18:00:00,88.2,72.6,29.82,SSW,206,0.0,7.0,60,0.00,,SCT033,0.36,VWS V15.00,2013-08-27 22:00:00,
2013-08-27 18:02:00,88.1,72.5,29.82,South,184,4.0,4.0,60,0.00,,BKN210,0.36,VWS V14.01,2013-08-27 22:02:00,
2013-08-27 18:07:00,88.0,72.4,29.82,South,177,4.0,9.0,60,0.00,,BKN210,0.36,VWS V14.01,2013-08-27 22:07:00,
2013-08-27 18:12:00,87.9,72.3,29.81,SSW,209,0.0,0.0,60,0.00,,BKN210,0.36,VWS V14.01,2013-08-27 22:12:00,
2013-08-27 18:15:00,87.8,72.2,29.82,SSW,203,4.0,8.0,60,0.00,,SCT033,0.36,VWS V15.00,2013-08-27 22:15:00,
2013-08-27 18:17:00,87.7,72.1,29.82,SSW,206,0.0,12.0,60,0.00,,BKN210,0.36,VWS V14.01,2013-08-27 22:17:00,
2013-08-27 18:22:00,87.7,72.1,29.82,SW,227,3.0,5.0,60,0.00,,BKN210,0.36,VWS V14.01,2013-08-27 22:22:00,
2013-08-27 18:27:00,87.6,72.0,29.82,SSW,212,0.0,4.0,60,0.00,,BKN210,0.36,VWS V14.01,2013-08-27 22:27:00,
2013-08-27 18:30:00,87.6,72.0,29.82,SSW,195,0.0,10.0,60,0.00,,SCT033,0.36,VWS V15.00,2013-08-27 22:30:00,
2013-08-27 18:32:00,87.5,71.9,29.82,South,184,5.0,7.0,60,0.00,,BKN210,0.36,VWS V14.01,2013-08-27 22:32:00,
2013-08-27 18:37:00,87.5,71.9,29.81,SSW,194,5.0,10.0,60,0.00,,BKN210,0.36,VWS V14.01,2013-08-27 22:37:00,
2013-08-27 18:42:00,87.5,71.9,29.81,SW,220,0.0,8.0,60,0.00,,BKN210,0.36,VWS V14.01,2013-08-27 22:42:00,
2013-08-27 18:45:00,87.5,71.4,29.82,SW,232,0.0,15.0,59,0.00,,SCT033,0.36,VWS V15.00,2013-08-27 22:45:00,
2013-08-27 18:47:00,87.5,71.9,29.81,SSW,205,0.0,0.0,60,0.00,,BKN210,0.36,VWS V14.01,2013-08-27 22:47:00,
2013-08-27 18:52:00,87.4,71.3,29.81,SSW,205,6.0,8.0,59,0.00,,BKN210,0.36,VWS V14.01,2013-08-27 22:52:00,
2013-08-27 18:57:00,87.4,70.8,29.81,South,176,5.0,8.0,58,0.00,,BKN210,0.36,VWS V14.01,2013-08-27 22:57:00,
2013-08-27 19:00:00,87.4,71.3,29.81,SW,236,0.0,7.0,59,0.00,,SCT033,0.36,VWS V15.00,2013-08-27 23:00:00,
2013-08-27 19:02:00,87.5,71.4,29.81,SW,233,1.0,6.0,59,0.00,,BKN210,0.36,VWS V14.01,2013-08-27 23:02:00,
2013-08-27 19:07:00,87.5,71.4,29.80,SSW,196,6.0,7.0,59,0.00,,BKN210,0.36,VWS V14.01,2013-08-27 23:07:00,
2013-08-27 19:12:00,87.6,71.0,29.81,South,189,10.0,17.0,58,0.00,,BKN210,0.36,VWS V14.01,2013-08-27 23:12:00,
2013-08-27 19:15:00,87.6,71.0,29.80,SSW,204,0.0,12.0,58,0.00,,SCT033,0.36,VWS V15.00,2013-08-27 23:15:00,
2013-08-27 19:18:00,87.6,71.0,29.80,SSE,155,2.0,15.0,58,0.00,,BKN210,0.36,VWS V14.01,2013-08-27 23:18:00,
2013-08-27 19:23:00,87.6,70.5,29.80,SSW,211,0.0,6.0,57,0.00,,BKN210,0.36,VWS V14.01,2013-08-27 23:23:00,
2013-08-27 19:28:00,87.6,71.0,29.80,SSW,197,0.0,3.0,58,0.00,,BKN210,0.36,VWS V14.01,2013-08-27 23:28:00,
2013-08-27 19:30:00,87.6,71.0,29.80,SSW,201,7.0,12.0,58,0.00,,SCT033,0.36,VWS V15.00,2013-08-27 23:30:00,
2013-08-27 19:33:00,87.5,70.9,29.80,South,174,0.0,4.0,58,0.00,,BKN210,0.36,VWS V14.01,2013-08-27 23:33:00,
2013-08-27 19:38:00,87.4,70.8,29.80,SW,223,0.0,8.0,58,0.00,,BKN210,0.36,VWS V14.01,2013-08-27 23:38:00,
2013-08-27 19:43:00,87.3,70.7,29.80,SSW,193,6.0,7.0,58,0.00,,BKN210,0.36,VWS V14.01,2013-08-27 23:43:00,
2013-08-27 19:45:00,87.3,70.7,29.80,SSW,198,4.0,9.0,58,0.00,,SCT033,0.36,VWS V15.00,2013-08-27 23:45:00,
2013-08-27 19:48:00,87.2,71.1,29.80,SSW,202,8.0,8.0,59,0.00,,BKN210,0.36,VWS V14.01,2013-08-27 23:48:00,
2013-08-27 19:53:00,87.1,71.0,29.80,South,178,0.0,14.0,59,0.00,,BKN210,0.36,VWS V14.01,2013-08-27 23:53:00,
2013-08-27 19:58:00,87.0,70.9,29.80,SW,226,0.0,0.0,59,0.00,,BKN210,0.36,VWS V14.01,2013-08-27 23:58:00,
2013-08-27 20:00:00,86.9,70.9,29.81,South,184,0.0,7.0,59,0.00,,SCT033,0.36,VWS V15.00,2013-08-28 00:00:00,
2013-08-27 20:03:00,86.9,70.9,29.80,SSW,207,0.0,7.0,59,0.00,,BKN210,0.36,VWS V14.01,2013-08-28 00:03:00,
2013-08-27 20:08:00,86.8,71.3,29.80,SSW,211,9.0,9.0,60,0.00,,BKN210,0.36,VWS V14.01,2013-08-28 00:08:00,
2013-08-27 20:13:00,86.7,71.2,29.80,South,186,0.0,0.0,60,0.00,,BKN210,0.36,VWS V14.01,2013-08-28 00:13:00,
2013-08-27 20:15:00,86.6,71.1,29.80,SSW,201,0.0,6.0,60,0.00,,SCT033,0.36,VWS V15.00,2013-08-28 00:15:00,
2013-08-27 20:18:00,86.6,71.1,29.80,SSW,205,0.0,6.0,60,0.00,,BKN210,0.36,VWS V14.01,2013-08-28 00:18:00,
2013-08-27 20:23:00,86.4,70.9,29.80,SW,220,9.0,9.0,60,0.00,,BKN210,0.36,VWS V14.01,2013-08-28 00:23:00,
2013-08-27 20:28:00,86.3,71.3,29.80,South,173,4.0,12.0,61,0.00,,BKN210,0.36,VWS V14.01,2013-08-28 00:28:00,
2013-08-27 20:30:00,86.3,71.3,29.80,WSW,248,7.0,11.0,61,0.00,,SCT033,0.36,VWS V15.00,2013-08-28 00:30:00,
2013-08-27 20:34:00,86.2,71.2,29.81,SW,228,3.0,7.0,61,0.00,,BKN210,0.36,VWS V14.01,2013-08-28 00:34:00,
2013-08-27 20:39:00,86.2,71.2,29.81,WSW,244,5.0,5.0,61,0.00,,BKN210,0.36,VWS V14.01,2013-08-28 00:39:00,
2013-08-27 20:44:00,86.2,71.7,29.81,SW,219,8.0,8.0,62,0.00,,BKN210,0.36,VWS V14.01,2013-08-28 00:44:00,
2013-08-27 20:45:00,86.2,71.7,29.81,SW,223,5.0,17.0,62,0.00,,SCT033,0.36,VWS V15.00,2013-08-28 00:45:00,
2013-08-27 20:49:00,86.2,71.7,29.80,SW,229,8.0,8.0,62,0.00,,BKN210,0.36,VWS V14.01,2013-08-28 00:49:00,
2013-08-27 20:54:00,86.1,71.6,29.80,SW,229,0.0,9.0,62,0.00,,BKN210,0.36,VWS V14.01,2013-08-28 00:54:00,
2013-08-27 20:59:00,86.1,72.0,29.80,SSW,205,0.0,5.0,63,0.00,,BKN210,0.36,VWS V14.01,2013-08-28 00:59:00,
2013-08-27 21:00:00,86.1,72.0,29.80,SSW,211,0.0,0.0,63,0.00,,SCT033,0.36,VWS V15.00,2013-08-28 01:00:00,
2013-08-27 21:04:00,85.9,72.3,29.80,SSW,211,0.0,3.0,64,0.00,,BKN210,0.36,VWS V14.01,2013-08-28 01:04:00,
2013-08-27 21:09:00,85.7,72.1,29.80,SW,218,0.0,0.0,64,0.00,,BKN210,0.36,VWS V14.01,2013-08-28 01:09:00,
2013-08-27 21:14:00,85.5,71.9,29.80,South,181,0.0,7.0,64,0.00,,BKN210,0.36,VWS V14.01,2013-08-28 01:14:00,
2013-08-27 21:15:00,85.5,71.9,29.80,SSW,203,8.0,8.0,64,0.00,,SCT033,0.36,VWS V15.00,2013-08-28 01:15:00,
2013-08-27 21:19:00,85.4,71.8,29.81,SW,232,4.0,6.0,64,0.00,,BKN210,0.36,VWS V14.01,2013-08-28 01:19:00,
2013-08-27 21:24:00,85.4,72.3,29.80,SSW,209,4.0,4.0,65,0.00,,BKN210,0.36,VWS V14.01,2013-08-28 01:24:00,
2013-08-27 21:29:00,85.4,72.3,29.81,WSW,255,3.0,4.0,65,0.00,,BKN210,0.36,VWS V14.01,2013-08-28 01:29:00,
2013-08-27 21:30:00,85.4,72.3,29.81,SW,232,3.0,10.0,65,0.00,,SCT033,0.36,VWS V15.00,2013-08-28 01:30:00,
2013-08-27 21:34:00,85.4,72.3,29.81,SW,221,0.0,0.0,65,0.00,,BKN210,0.36,VWS V14.01,2013-08-28 01:34:00,
2013-08-27 21:39:00,85.5,72.4,29.80,SSW,213,4.0,8.0,65,0.00,,BKN210,0.36,VWS V14.01,2013-08-28 01:39:00,
2013-08-27 21:44:00,85.6,72.5,29.80,SW,230,4.0,5.0,65,0.00,,BKN210,0.36,VWS V14.01,2013-08-28 01:44:00,
2013-08-27 21:45:00,85.6,72.5,29.80,SSW,209,0.0,5.0,65,0.00,,OVC021,0.36,VWS V15.00,2013-08-28 01:45:00,
2013-08-27 21:49:00,85.7,72.6,29.80,SW,220,0.0,5.0,65,0.00,,BKN210,0.36,VWS V14.01,2013-08-28 01:49:00,
2013-08-27 21:54:00,85.7,73.5,29.79,West,264,7.0,9.0,67,0.00,,BKN210,0.36,VWS V14.01,2013-08-28 01:54:00,
2013-08-27 22:00:00,85.0,73.7,29.79,SW,229,3.0,7.0,69,0.01,,BKN210,0.37,VWS V14.01,2013-08-28 02:00:00,
2013-08-27 22:05:00,84.2,73.8,29.80,SW,231,0.0,4.0,71,0.01,,BKN070,0.37,VWS V14.01,2013-08-28 02:05:00,
2013-08-27 22:10:00,83.5,73.5,29.80,SSW,209,5.0,6.0,72,0.01,,BKN070,0.37,VWS V14.01,2013-08-28 02:10:00,
2013-08-27 22:15:00,83.0,73.9,29.80,SW,234,0.0,5.0,74,0.01,,BKN070,0.37,VWS V14.01,2013-08-28 02:15:00,
2013-08-27 22:20:00,82.7,73.6,29.79,SW,228,0.0,4.0,74,0.01,,BKN070,0.37,VWS V14.01,2013-08-28 02:20:00,
2013-08-27 22:25:00,82.5,73.8,29.80,SW,232,0.0,9.0,75,0.01,,BKN070,0.37,VWS V14.01,2013-08-28 02:25:00,
2013-08-27 22:30:00,82.3,73.6,29.79,SW,214,0.0,9.0,75,0.01,,BKN070,0.37,VWS V14.01,2013-08-28 02:30:00,
2013-08-27 22:35:00,82.3,73.6,29.78,SW,226,0.0,5.0,75,0.01,,BKN070,0.37,VWS V14.01,2013-08-28 02:35:00,
2013-08-27 22:40:00,82.4,73.7,29.79,SW,230,0.0,8.0,75,0.01,,BKN070,0.37,VWS V14.01,2013-08-28 02:40:00,
2013-08-27 22:45:00,82.5,73.8,29.79,SSW,213,0.0,0.0,75,0.01,,BKN070,0.37,VWS V14.01,2013-08-28 02:45:00,
2013-08-27 22:50:00,82.6,73.5,29.79,WSW,246,0.0,5.0,74,0.01,,BKN070,0.37,VWS V14.01,2013-08-28 02:50:00,
2013-08-27 22:55:00,82.8,73.7,29.79,WSW,247,0.0,0.0,74,0.01,,BKN070,0.37,VWS V14.01,2013-08-28 02:55:00,
2013-08-27 23:00:00,83.0,73.5,29.79,SW,232,7.0,10.0,73,0.01,,SCT033,0.37,VWS V15.00,2013-08-28 03:00:00,
2013-08-27 23:01:00,83.0,73.5,29.79,West,276,3.0,10.0,73,0.00,,BKN070,0.37,VWS V14.01,2013-08-28 03:01:00,
2013-08-27 23:06:00,83.1,74.8,29.79,SW,230,2.0,7.0,76,0.04,,BKN070,0.41,VWS V14.01,2013-08-28 03:06:00,
2013-08-27 23:11:00,82.5,74.6,29.79,SW,230,0.0,0.0,77,0.05,,BKN070,0.42,VWS V14.01,2013-08-28 03:11:00,
2013-08-27 23:15:00,82.1,74.6,29.79,WSW,243,0.0,0.0,78,0.05,,SCT033,0.42,VWS V15.00,2013-08-28 03:15:00,
2013-08-27 23:17:00,81.9,74.4,29.79,WSW,243,0.0,0.0,78,0.05,,BKN070,0.42,VWS V14.01,2013-08-28 03:17:00,
2013-08-27 23:22:00,81.5,74.4,29.79,West,270,0.0,0.0,79,0.05,,BKN070,0.42,VWS V14.01,2013-08-28 03:22:00,
2013-08-27 23:27:00,81.2,74.4,29.80,WNW,299,0.0,0.0,80,0.05,,BKN070,0.42,VWS V14.01,2013-08-28 03:27:00,
2013-08-27 23:30:00,81.1,74.7,29.80,NW,315,0.0,0.0,81,0.05,,SCT033,0.42,VWS V15.00,2013-08-28 03:30:00,
2013-08-27 23:32:00,80.9,74.5,29.80,NW,315,0.0,0.0,81,0.05,,BKN070,0.42,VWS V14.01,2013-08-28 03:32:00,
2013-08-27 23:37:00,80.7,74.7,29.80,NW,306,0.0,0.0,82,0.05,,BKN070,0.42,VWS V14.01,2013-08-28 03:37:00,
2013-08-27 23:42:00,80.4,74.4,29.80,NW,315,0.0,0.0,82,0.05,,OVC070,0.42,VWS V14.01,2013-08-28 03:42:00,
2013-08-27 23:45:00,80.2,74.2,29.81,NNW,336,0.0,0.0,82,0.05,,SCT033,0.42,VWS V15.00,2013-08-28 03:45:00,
2013-08-27 23:47:00,80.1,74.5,29.81,North,351,0.0,4.0,83,0.05,,OVC070,0.42,VWS V14.01,2013-08-28 03:47:00,
2013-08-27 23:52:00,79.8,74.5,29.82,North,351,0.0,2.0,84,0.05,,OVC070,0.42,VWS V14.01,2013-08-28 03:52:00,
2013-08-27 23:57:00,79.4,74.2,29.81,NE,39,1.0,6.0,84,0.06,,OVC070,0.43,VWS V14.01,2013-08-28 03:57:00,